sensor_id;sensor_type;location;lat;lon;timestamp;P1;durP1;ratioP1;P2;durP2;ratioP2
20348;SDS011;10332;50.208;18.988;2024-01-06T00:00:29;59.30;;;25.60;;
20348;SDS011;10332;50.208;18.988;2024-01-06T00:03:16;50.63;;;22.83;;
20348;SDS011;10332;50.208;18.988;2024-01-06T00:05:44;52.70;;;24.45;;
20348;SDS011;10332;50.208;18.988;2024-01-06T00:08:11;46.83;;;23.42;;
20348;SDS011;10332;50.208;18.988;2024-01-06T00:10:39;55.40;;;24.08;;
20348;SDS011;10332;50.208;18.988;2024-01-06T00:13:06;44.35;;;22.33;;
20348;SDS011;10332;50.208;18.988;2024-01-06T00:15:34;64.88;;;24.90;;
20348;SDS011;10332;50.208;18.988;2024-01-06T00:18:01;55.60;;;22.92;;
20348;SDS011;10332;50.208;18.988;2024-01-06T00:20:29;64.25;;;25.10;;
20348;SDS011;10332;50.208;18.988;2024-01-06T00:22:56;41.38;;;21.35;;
20348;SDS011;10332;50.208;18.988;2024-01-06T00:25:25;47.70;;;24.23;;
20348;SDS011;10332;50.208;18.988;2024-01-06T00:27:53;41.78;;;21.05;;
20348;SDS011;10332;50.208;18.988;2024-01-06T00:30:21;62.63;;;25.67;;
20348;SDS011;10332;50.208;18.988;2024-01-06T00:32:48;50.47;;;23.08;;
20348;SDS011;10332;50.208;18.988;2024-01-06T00:35:16;37.38;;;19.92;;
20348;SDS011;10332;50.208;18.988;2024-01-06T00:37:43;46.20;;;22.80;;
20348;SDS011;10332;50.208;18.988;2024-01-06T00:40:11;43.03;;;22.08;;
20348;SDS011;10332;50.208;18.988;2024-01-06T00:42:38;65.43;;;25.15;;
20348;SDS011;10332;50.208;18.988;2024-01-06T00:45:06;52.40;;;23.20;;
20348;SDS011;10332;50.208;18.988;2024-01-06T00:47:34;45.67;;;23.13;;
20348;SDS011;10332;50.208;18.988;2024-01-06T00:50:01;42.28;;;20.83;;
20348;SDS011;10332;50.208;18.988;2024-01-06T00:52:29;44.20;;;21.70;;
20348;SDS011;10332;50.208;18.988;2024-01-06T00:54:56;44.42;;;22.48;;
20348;SDS011;10332;50.208;18.988;2024-01-06T00:57:24;40.70;;;20.08;;
20348;SDS011;10332;50.208;18.988;2024-01-06T00:59:51;44.60;;;22.45;;
20348;SDS011;10332;50.208;18.988;2024-01-06T01:02:18;51.35;;;24.27;;
20348;SDS011;10332;50.208;18.988;2024-01-06T01:04:46;53.83;;;25.48;;
20348;SDS011;10332;50.208;18.988;2024-01-06T01:07:13;43.55;;;21.55;;
20348;SDS011;10332;50.208;18.988;2024-01-06T01:09:41;47.38;;;22.50;;
20348;SDS011;10332;50.208;18.988;2024-01-06T01:12:08;44.45;;;22.00;;
20348;SDS011;10332;50.208;18.988;2024-01-06T01:14:36;37.75;;;19.48;;
20348;SDS011;10332;50.208;18.988;2024-01-06T01:17:03;46.03;;;22.15;;
20348;SDS011;10332;50.208;18.988;2024-01-06T01:19:31;54.30;;;26.13;;
20348;SDS011;10332;50.208;18.988;2024-01-06T01:21:58;43.72;;;23.02;;
20348;SDS011;10332;50.208;18.988;2024-01-06T01:24:26;47.40;;;23.30;;
20348;SDS011;10332;50.208;18.988;2024-01-06T01:26:53;46.65;;;22.90;;
20348;SDS011;10332;50.208;18.988;2024-01-06T01:29:21;53.47;;;24.92;;
20348;SDS011;10332;50.208;18.988;2024-01-06T01:31:48;51.45;;;24.63;;
20348;SDS011;10332;50.208;18.988;2024-01-06T01:34:16;50.88;;;23.25;;
20348;SDS011;10332;50.208;18.988;2024-01-06T01:36:43;46.30;;;22.33;;
20348;SDS011;10332;50.208;18.988;2024-01-06T01:39:11;48.13;;;24.30;;
20348;SDS011;10332;50.208;18.988;2024-01-06T01:41:39;49.45;;;24.58;;
20348;SDS011;10332;50.208;18.988;2024-01-06T01:44:07;51.33;;;24.98;;
20348;SDS011;10332;50.208;18.988;2024-01-06T01:46:34;53.42;;;25.55;;
20348;SDS011;10332;50.208;18.988;2024-01-06T01:49:02;54.13;;;27.23;;
20348;SDS011;10332;50.208;18.988;2024-01-06T01:51:31;52.22;;;25.00;;
20348;SDS011;10332;50.208;18.988;2024-01-06T01:54:01;48.25;;;23.30;;
20348;SDS011;10332;50.208;18.988;2024-01-06T01:56:30;54.25;;;26.55;;
20348;SDS011;10332;50.208;18.988;2024-01-06T01:59:03;46.05;;;23.15;;
20348;SDS011;10332;50.208;18.988;2024-01-06T02:01:33;45.95;;;23.40;;
20348;SDS011;10332;50.208;18.988;2024-01-06T02:04:01;52.03;;;25.17;;
20348;SDS011;10332;50.208;18.988;2024-01-06T02:06:28;46.25;;;22.63;;
20348;SDS011;10332;50.208;18.988;2024-01-06T02:08:56;45.25;;;23.38;;
20348;SDS011;10332;50.208;18.988;2024-01-06T02:11:24;48.03;;;23.67;;
20348;SDS011;10332;50.208;18.988;2024-01-06T02:13:51;48.17;;;24.58;;
20348;SDS011;10332;50.208;18.988;2024-01-06T02:16:18;46.88;;;24.40;;
20348;SDS011;10332;50.208;18.988;2024-01-06T02:18:46;48.70;;;23.40;;
20348;SDS011;10332;50.208;18.988;2024-01-06T02:21:13;41.20;;;21.33;;
20348;SDS011;10332;50.208;18.988;2024-01-06T02:23:41;48.13;;;24.13;;
20348;SDS011;10332;50.208;18.988;2024-01-06T02:26:09;48.75;;;23.60;;
20348;SDS011;10332;50.208;18.988;2024-01-06T02:28:37;47.85;;;24.45;;
20348;SDS011;10332;50.208;18.988;2024-01-06T02:31:04;47.20;;;23.50;;
20348;SDS011;10332;50.208;18.988;2024-01-06T02:33:32;48.95;;;24.38;;
20348;SDS011;10332;50.208;18.988;2024-01-06T02:35:59;49.63;;;24.45;;
20348;SDS011;10332;50.208;18.988;2024-01-06T02:38:28;45.13;;;23.10;;
20348;SDS011;10332;50.208;18.988;2024-01-06T02:40:55;45.97;;;25.23;;
20348;SDS011;10332;50.208;18.988;2024-01-06T02:43:22;46.42;;;22.98;;
20348;SDS011;10332;50.208;18.988;2024-01-06T02:45:50;48.65;;;25.38;;
20348;SDS011;10332;50.208;18.988;2024-01-06T02:48:17;58.08;;;28.30;;
20348;SDS011;10332;50.208;18.988;2024-01-06T02:50:45;50.25;;;25.80;;
20348;SDS011;10332;50.208;18.988;2024-01-06T02:53:12;50.65;;;24.75;;
20348;SDS011;10332;50.208;18.988;2024-01-06T02:55:39;49.45;;;24.55;;
20348;SDS011;10332;50.208;18.988;2024-01-06T02:58:07;49.10;;;23.63;;
20348;SDS011;10332;50.208;18.988;2024-01-06T03:00:34;40.17;;;21.48;;
20348;SDS011;10332;50.208;18.988;2024-01-06T03:03:02;46.80;;;24.17;;
20348;SDS011;10332;50.208;18.988;2024-01-06T03:05:29;45.85;;;22.98;;
20348;SDS011;10332;50.208;18.988;2024-01-06T03:07:57;41.42;;;21.67;;
20348;SDS011;10332;50.208;18.988;2024-01-06T03:10:24;42.08;;;20.73;;
20348;SDS011;10332;50.208;18.988;2024-01-06T03:12:52;41.17;;;21.58;;
20348;SDS011;10332;50.208;18.988;2024-01-06T03:15:19;39.53;;;20.90;;
20348;SDS011;10332;50.208;18.988;2024-01-06T03:17:46;43.63;;;23.15;;
20348;SDS011;10332;50.208;18.988;2024-01-06T03:20:14;42.83;;;22.60;;
20348;SDS011;10332;50.208;18.988;2024-01-06T03:22:42;39.47;;;20.52;;
20348;SDS011;10332;50.208;18.988;2024-01-06T03:25:09;37.22;;;19.60;;
20348;SDS011;10332;50.208;18.988;2024-01-06T03:27:37;32.05;;;17.90;;
20348;SDS011;10332;50.208;18.988;2024-01-06T03:30:04;36.08;;;19.48;;
20348;SDS011;10332;50.208;18.988;2024-01-06T03:32:32;32.67;;;18.00;;
20348;SDS011;10332;50.208;18.988;2024-01-06T03:34:59;34.90;;;18.90;;
20348;SDS011;10332;50.208;18.988;2024-01-06T03:37:27;50.33;;;26.27;;
20348;SDS011;10332;50.208;18.988;2024-01-06T03:39:54;53.30;;;27.15;;
20348;SDS011;10332;50.208;18.988;2024-01-06T03:42:22;49.05;;;25.75;;
20348;SDS011;10332;50.208;18.988;2024-01-06T03:44:49;42.92;;;23.42;;
20348;SDS011;10332;50.208;18.988;2024-01-06T03:47:16;49.95;;;26.00;;
20348;SDS011;10332;50.208;18.988;2024-01-06T03:49:44;56.65;;;29.23;;
20348;SDS011;10332;50.208;18.988;2024-01-06T03:52:12;50.03;;;27.17;;
20348;SDS011;10332;50.208;18.988;2024-01-06T03:54:40;52.08;;;26.95;;
20348;SDS011;10332;50.208;18.988;2024-01-06T03:57:08;52.00;;;26.50;;
20348;SDS011;10332;50.208;18.988;2024-01-06T03:59:35;50.05;;;24.75;;
20348;SDS011;10332;50.208;18.988;2024-01-06T04:02:03;46.75;;;25.05;;
20348;SDS011;10332;50.208;18.988;2024-01-06T04:04:30;47.08;;;24.50;;
20348;SDS011;10332;50.208;18.988;2024-01-06T04:06:58;41.17;;;20.83;;
20348;SDS011;10332;50.208;18.988;2024-01-06T04:09:27;42.95;;;22.55;;
20348;SDS011;10332;50.208;18.988;2024-01-06T04:11:55;47.88;;;24.77;;
20348;SDS011;10332;50.208;18.988;2024-01-06T04:14:22;47.17;;;24.30;;
20348;SDS011;10332;50.208;18.988;2024-01-06T04:16:50;44.55;;;24.23;;
20348;SDS011;10332;50.208;18.988;2024-01-06T04:19:21;39.28;;;20.52;;
20348;SDS011;10332;50.208;18.988;2024-01-06T04:21:49;47.20;;;25.02;;
20348;SDS011;10332;50.208;18.988;2024-01-06T04:24:16;46.05;;;24.23;;
20348;SDS011;10332;50.208;18.988;2024-01-06T04:26:44;42.42;;;22.65;;
20348;SDS011;10332;50.208;18.988;2024-01-06T04:29:12;41.70;;;21.65;;
20348;SDS011;10332;50.208;18.988;2024-01-06T04:31:42;43.50;;;22.58;;
20348;SDS011;10332;50.208;18.988;2024-01-06T04:34:10;42.42;;;21.95;;
20348;SDS011;10332;50.208;18.988;2024-01-06T04:36:38;44.03;;;23.10;;
20348;SDS011;10332;50.208;18.988;2024-01-06T04:39:05;46.95;;;25.80;;
20348;SDS011;10332;50.208;18.988;2024-01-06T04:41:32;50.13;;;25.35;;
20348;SDS011;10332;50.208;18.988;2024-01-06T04:44:00;46.95;;;26.23;;
20348;SDS011;10332;50.208;18.988;2024-01-06T04:46:27;49.67;;;26.92;;
20348;SDS011;10332;50.208;18.988;2024-01-06T04:48:57;52.83;;;27.25;;
20348;SDS011;10332;50.208;18.988;2024-01-06T04:51:24;46.38;;;24.83;;
20348;SDS011;10332;50.208;18.988;2024-01-06T04:53:52;42.63;;;23.02;;
20348;SDS011;10332;50.208;18.988;2024-01-06T04:56:19;48.15;;;26.38;;
20348;SDS011;10332;50.208;18.988;2024-01-06T04:58:46;40.30;;;21.95;;
20348;SDS011;10332;50.208;18.988;2024-01-06T05:01:14;43.42;;;24.15;;
20348;SDS011;10332;50.208;18.988;2024-01-06T05:03:42;42.97;;;23.55;;
20348;SDS011;10332;50.208;18.988;2024-01-06T05:06:09;43.60;;;24.63;;
20348;SDS011;10332;50.208;18.988;2024-01-06T05:08:36;47.30;;;24.42;;
20348;SDS011;10332;50.208;18.988;2024-01-06T05:11:08;50.72;;;27.83;;
20348;SDS011;10332;50.208;18.988;2024-01-06T05:13:35;54.63;;;29.50;;
20348;SDS011;10332;50.208;18.988;2024-01-06T05:16:03;49.72;;;26.58;;
20348;SDS011;10332;50.208;18.988;2024-01-06T05:18:30;49.85;;;26.25;;
20348;SDS011;10332;50.208;18.988;2024-01-06T05:20:58;48.80;;;27.23;;
20348;SDS011;10332;50.208;18.988;2024-01-06T05:23:25;52.75;;;28.52;;
20348;SDS011;10332;50.208;18.988;2024-01-06T05:25:53;54.80;;;28.60;;
20348;SDS011;10332;50.208;18.988;2024-01-06T05:28:20;53.63;;;28.27;;
20348;SDS011;10332;50.208;18.988;2024-01-06T05:30:47;47.58;;;26.50;;
20348;SDS011;10332;50.208;18.988;2024-01-06T05:33:15;55.55;;;29.23;;
20348;SDS011;10332;50.208;18.988;2024-01-06T05:35:43;52.83;;;28.67;;
20348;SDS011;10332;50.208;18.988;2024-01-06T05:38:11;46.38;;;25.60;;
20348;SDS011;10332;50.208;18.988;2024-01-06T05:40:38;50.08;;;26.90;;
20348;SDS011;10332;50.208;18.988;2024-01-06T05:43:05;49.75;;;26.27;;
20348;SDS011;10332;50.208;18.988;2024-01-06T05:45:33;57.22;;;29.50;;
20348;SDS011;10332;50.208;18.988;2024-01-06T05:48:00;48.47;;;27.17;;
20348;SDS011;10332;50.208;18.988;2024-01-06T05:50:28;54.45;;;28.50;;
20348;SDS011;10332;50.208;18.988;2024-01-06T05:52:55;51.90;;;28.90;;
20348;SDS011;10332;50.208;18.988;2024-01-06T05:55:23;54.08;;;29.42;;
20348;SDS011;10332;50.208;18.988;2024-01-06T05:57:50;47.10;;;25.50;;
20348;SDS011;10332;50.208;18.988;2024-01-06T06:00:18;49.42;;;26.13;;
20348;SDS011;10332;50.208;18.988;2024-01-06T06:02:46;47.78;;;26.13;;
20348;SDS011;10332;50.208;18.988;2024-01-06T06:05:13;56.85;;;29.85;;
20348;SDS011;10332;50.208;18.988;2024-01-06T06:07:40;54.78;;;29.30;;
20348;SDS011;10332;50.208;18.988;2024-01-06T06:10:10;61.75;;;31.95;;
20348;SDS011;10332;50.208;18.988;2024-01-06T06:12:38;63.03;;;32.50;;
20348;SDS011;10332;50.208;18.988;2024-01-06T06:15:06;54.58;;;29.67;;
20348;SDS011;10332;50.208;18.988;2024-01-06T06:17:33;52.03;;;28.92;;
20348;SDS011;10332;50.208;18.988;2024-01-06T06:20:01;58.10;;;28.85;;
20348;SDS011;10332;50.208;18.988;2024-01-06T06:22:29;45.95;;;25.02;;
20348;SDS011;10332;50.208;18.988;2024-01-06T06:24:58;52.13;;;28.77;;
20348;SDS011;10332;50.208;18.988;2024-01-06T06:27:26;50.63;;;28.38;;
20348;SDS011;10332;50.208;18.988;2024-01-06T06:29:54;53.13;;;29.13;;
20348;SDS011;10332;50.208;18.988;2024-01-06T06:32:25;52.38;;;29.10;;
20348;SDS011;10332;50.208;18.988;2024-01-06T06:34:53;44.63;;;24.00;;
20348;SDS011;10332;50.208;18.988;2024-01-06T06:37:20;44.92;;;24.80;;
20348;SDS011;10332;50.208;18.988;2024-01-06T06:39:48;40.63;;;21.85;;
20348;SDS011;10332;50.208;18.988;2024-01-06T06:42:15;39.05;;;22.02;;
20348;SDS011;10332;50.208;18.988;2024-01-06T06:44:43;40.92;;;22.85;;
20348;SDS011;10332;50.208;18.988;2024-01-06T06:47:10;35.95;;;21.35;;
20348;SDS011;10332;50.208;18.988;2024-01-06T06:49:37;39.22;;;22.75;;
20348;SDS011;10332;50.208;18.988;2024-01-06T06:52:05;48.20;;;27.33;;
20348;SDS011;10332;50.208;18.988;2024-01-06T06:54:33;54.53;;;29.35;;
20348;SDS011;10332;50.208;18.988;2024-01-06T06:57:01;63.28;;;32.55;;
20348;SDS011;10332;50.208;18.988;2024-01-06T06:59:29;63.05;;;33.92;;
20348;SDS011;10332;50.208;18.988;2024-01-06T07:01:57;63.13;;;33.15;;
20348;SDS011;10332;50.208;18.988;2024-01-06T07:04:24;61.35;;;32.30;;
20348;SDS011;10332;50.208;18.988;2024-01-06T07:06:53;57.13;;;32.03;;
20348;SDS011;10332;50.208;18.988;2024-01-06T07:09:20;71.18;;;36.70;;
20348;SDS011;10332;50.208;18.988;2024-01-06T07:11:50;66.18;;;35.60;;
20348;SDS011;10332;50.208;18.988;2024-01-06T07:14:17;65.22;;;36.10;;
20348;SDS011;10332;50.208;18.988;2024-01-06T07:16:45;62.80;;;34.92;;
20348;SDS011;10332;50.208;18.988;2024-01-06T07:19:12;62.10;;;34.75;;
20348;SDS011;10332;50.208;18.988;2024-01-06T07:21:40;65.57;;;36.40;;
20348;SDS011;10332;50.208;18.988;2024-01-06T07:24:07;60.33;;;33.70;;
20348;SDS011;10332;50.208;18.988;2024-01-06T07:26:34;56.67;;;32.05;;
20348;SDS011;10332;50.208;18.988;2024-01-06T07:29:03;46.50;;;28.13;;
20348;SDS011;10332;50.208;18.988;2024-01-06T07:31:30;50.67;;;28.00;;
20348;SDS011;10332;50.208;18.988;2024-01-06T07:33:58;43.10;;;23.65;;
20348;SDS011;10332;50.208;18.988;2024-01-06T07:36:26;47.85;;;26.45;;
20348;SDS011;10332;50.208;18.988;2024-01-06T07:38:53;54.30;;;29.77;;
20348;SDS011;10332;50.208;18.988;2024-01-06T07:41:21;64.57;;;35.90;;
20348;SDS011;10332;50.208;18.988;2024-01-06T07:43:48;54.83;;;31.08;;
20348;SDS011;10332;50.208;18.988;2024-01-06T07:46:16;61.72;;;32.80;;
20348;SDS011;10332;50.208;18.988;2024-01-06T07:48:46;59.55;;;33.10;;
20348;SDS011;10332;50.208;18.988;2024-01-06T07:51:13;61.75;;;34.40;;
20348;SDS011;10332;50.208;18.988;2024-01-06T07:53:41;57.78;;;31.02;;
20348;SDS011;10332;50.208;18.988;2024-01-06T07:56:09;57.13;;;32.90;;
20348;SDS011;10332;50.208;18.988;2024-01-06T07:58:36;49.58;;;27.33;;
20348;SDS011;10332;50.208;18.988;2024-01-06T08:01:04;59.30;;;32.40;;
20348;SDS011;10332;50.208;18.988;2024-01-06T08:03:31;70.55;;;38.55;;
20348;SDS011;10332;50.208;18.988;2024-01-06T08:05:59;64.72;;;37.03;;
20348;SDS011;10332;50.208;18.988;2024-01-06T08:08:26;68.28;;;36.15;;
20348;SDS011;10332;50.208;18.988;2024-01-06T08:10:54;70.60;;;38.97;;
20348;SDS011;10332;50.208;18.988;2024-01-06T08:13:21;67.95;;;41.25;;
20348;SDS011;10332;50.208;18.988;2024-01-06T08:15:48;67.50;;;40.10;;
20348;SDS011;10332;50.208;18.988;2024-01-06T08:18:16;53.78;;;31.77;;
20348;SDS011;10332;50.208;18.988;2024-01-06T08:20:46;52.80;;;31.92;;
20348;SDS011;10332;50.208;18.988;2024-01-06T08:23:13;77.93;;;44.85;;
20348;SDS011;10332;50.208;18.988;2024-01-06T08:25:41;66.45;;;37.50;;
20348;SDS011;10332;50.208;18.988;2024-01-06T08:28:08;61.28;;;34.63;;
20348;SDS011;10332;50.208;18.988;2024-01-06T08:30:35;56.05;;;31.33;;
20348;SDS011;10332;50.208;18.988;2024-01-06T08:33:03;51.70;;;31.15;;
20348;SDS011;10332;50.208;18.988;2024-01-06T08:35:31;52.78;;;30.33;;
20348;SDS011;10332;50.208;18.988;2024-01-06T08:37:58;53.72;;;30.90;;
20348;SDS011;10332;50.208;18.988;2024-01-06T08:40:25;52.13;;;30.92;;
20348;SDS011;10332;50.208;18.988;2024-01-06T08:42:53;44.30;;;26.00;;
20348;SDS011;10332;50.208;18.988;2024-01-06T08:45:21;43.97;;;25.77;;
20348;SDS011;10332;50.208;18.988;2024-01-06T08:47:49;50.13;;;30.92;;
20348;SDS011;10332;50.208;18.988;2024-01-06T08:50:16;51.90;;;30.02;;
20348;SDS011;10332;50.208;18.988;2024-01-06T08:52:44;53.45;;;30.05;;
20348;SDS011;10332;50.208;18.988;2024-01-06T08:55:12;50.92;;;29.58;;
20348;SDS011;10332;50.208;18.988;2024-01-06T08:57:42;45.85;;;27.45;;
20348;SDS011;10332;50.208;18.988;2024-01-06T09:00:09;47.35;;;27.52;;
20348;SDS011;10332;50.208;18.988;2024-01-06T09:02:37;45.33;;;25.92;;
20348;SDS011;10332;50.208;18.988;2024-01-06T09:05:05;41.58;;;24.65;;
20348;SDS011;10332;50.208;18.988;2024-01-06T09:07:32;48.42;;;28.55;;
20348;SDS011;10332;50.208;18.988;2024-01-06T09:10:01;56.88;;;32.38;;
20348;SDS011;10332;50.208;18.988;2024-01-06T09:12:29;57.65;;;31.60;;
20348;SDS011;10332;50.208;18.988;2024-01-06T09:14:56;46.97;;;27.10;;
20348;SDS011;10332;50.208;18.988;2024-01-06T09:17:24;54.03;;;30.35;;
20348;SDS011;10332;50.208;18.988;2024-01-06T09:19:51;47.95;;;28.38;;
20348;SDS011;10332;50.208;18.988;2024-01-06T09:22:20;51.05;;;29.17;;
20348;SDS011;10332;50.208;18.988;2024-01-06T09:24:48;48.00;;;26.83;;
20348;SDS011;10332;50.208;18.988;2024-01-06T09:27:15;55.20;;;32.03;;
20348;SDS011;10332;50.208;18.988;2024-01-06T09:29:43;52.15;;;30.90;;
20348;SDS011;10332;50.208;18.988;2024-01-06T09:32:10;54.85;;;32.25;;
20348;SDS011;10332;50.208;18.988;2024-01-06T09:34:38;43.83;;;26.30;;
20348;SDS011;10332;50.208;18.988;2024-01-06T09:37:06;42.38;;;25.20;;
20348;SDS011;10332;50.208;18.988;2024-01-06T09:39:33;51.08;;;29.67;;
20348;SDS011;10332;50.208;18.988;2024-01-06T09:42:00;49.50;;;29.15;;
20348;SDS011;10332;50.208;18.988;2024-01-06T09:44:28;46.42;;;27.75;;
20348;SDS011;10332;50.208;18.988;2024-01-06T09:46:56;50.00;;;30.40;;
20348;SDS011;10332;50.208;18.988;2024-01-06T09:49:27;52.53;;;29.92;;
20348;SDS011;10332;50.208;18.988;2024-01-06T09:51:57;55.38;;;33.33;;
20348;SDS011;10332;50.208;18.988;2024-01-06T09:54:27;57.63;;;34.53;;
20348;SDS011;10332;50.208;18.988;2024-01-06T09:57:01;66.90;;;37.75;;
20348;SDS011;10332;50.208;18.988;2024-01-06T09:59:33;68.88;;;40.38;;
20348;SDS011;10332;50.208;18.988;2024-01-06T10:02:03;66.47;;;36.67;;
20348;SDS011;10332;50.208;18.988;2024-01-06T10:04:31;75.63;;;42.92;;
20348;SDS011;10332;50.208;18.988;2024-01-06T10:06:59;78.63;;;44.15;;
20348;SDS011;10332;50.208;18.988;2024-01-06T10:09:27;69.15;;;38.50;;
20348;SDS011;10332;50.208;18.988;2024-01-06T10:11:56;57.83;;;34.50;;
20348;SDS011;10332;50.208;18.988;2024-01-06T10:14:26;50.22;;;29.23;;
20348;SDS011;10332;50.208;18.988;2024-01-06T10:16:53;43.65;;;26.67;;
20348;SDS011;10332;50.208;18.988;2024-01-06T10:19:23;54.78;;;31.83;;
20348;SDS011;10332;50.208;18.988;2024-01-06T10:21:50;50.40;;;30.63;;
20348;SDS011;10332;50.208;18.988;2024-01-06T10:24:18;54.28;;;32.65;;
20348;SDS011;10332;50.208;18.988;2024-01-06T10:26:46;63.95;;;37.33;;
20348;SDS011;10332;50.208;18.988;2024-01-06T10:29:13;59.97;;;35.92;;
20348;SDS011;10332;50.208;18.988;2024-01-06T10:31:41;66.63;;;36.50;;
20348;SDS011;10332;50.208;18.988;2024-01-06T10:34:11;64.50;;;36.63;;
20348;SDS011;10332;50.208;18.988;2024-01-06T10:36:38;66.20;;;37.42;;
20348;SDS011;10332;50.208;18.988;2024-01-06T10:39:06;57.97;;;32.70;;
20348;SDS011;10332;50.208;18.988;2024-01-06T10:41:34;78.85;;;45.05;;
20348;SDS011;10332;50.208;18.988;2024-01-06T10:44:02;65.75;;;38.28;;
20348;SDS011;10332;50.208;18.988;2024-01-06T10:46:31;68.45;;;40.40;;
20348;SDS011;10332;50.208;18.988;2024-01-06T10:48:59;84.82;;;48.28;;
20348;SDS011;10332;50.208;18.988;2024-01-06T10:51:27;91.38;;;50.40;;
20348;SDS011;10332;50.208;18.988;2024-01-06T10:53:56;95.78;;;51.70;;
20348;SDS011;10332;50.208;18.988;2024-01-06T10:56:27;91.88;;;49.67;;
20348;SDS011;10332;50.208;18.988;2024-01-06T10:58:57;91.30;;;49.10;;
20348;SDS011;10332;50.208;18.988;2024-01-06T11:01:26;88.30;;;49.35;;
20348;SDS011;10332;50.208;18.988;2024-01-06T11:03:56;82.22;;;47.63;;
20348;SDS011;10332;50.208;18.988;2024-01-06T11:06:25;80.28;;;46.70;;
20348;SDS011;10332;50.208;18.988;2024-01-06T11:09:17;75.45;;;46.25;;
20348;SDS011;10332;50.208;18.988;2024-01-06T11:11:46;87.45;;;51.30;;
20348;SDS011;10332;50.208;18.988;2024-01-06T11:14:19;79.70;;;48.40;;
20348;SDS011;10332;50.208;18.988;2024-01-06T11:16:48;74.10;;;44.75;;
20348;SDS011;10332;50.208;18.988;2024-01-06T11:25:03;85.63;;;49.08;;
20348;SDS011;10332;50.208;18.988;2024-01-06T11:27:35;93.05;;;53.70;;
20348;SDS011;10332;50.208;18.988;2024-01-06T11:30:03;83.55;;;49.85;;
20348;SDS011;10332;50.208;18.988;2024-01-06T11:32:35;91.57;;;52.22;;
20348;SDS011;10332;50.208;18.988;2024-01-06T11:40:10;79.65;;;44.53;;
20348;SDS011;10332;50.208;18.988;2024-01-06T11:42:42;75.22;;;43.92;;
20348;SDS011;10332;50.208;18.988;2024-01-06T11:45:11;83.35;;;46.80;;
20348;SDS011;10332;50.208;18.988;2024-01-06T11:47:43;87.60;;;50.28;;
20348;SDS011;10332;50.208;18.988;2024-01-06T11:50:15;90.47;;;51.38;;
20348;SDS011;10332;50.208;18.988;2024-01-06T11:52:43;84.05;;;48.10;;
20348;SDS011;10332;50.208;18.988;2024-01-06T11:55:11;95.47;;;54.58;;
20348;SDS011;10332;50.208;18.988;2024-01-06T11:57:39;104.95;;;58.75;;
20348;SDS011;10332;50.208;18.988;2024-01-06T12:00:07;110.53;;;58.85;;
20348;SDS011;10332;50.208;18.988;2024-01-06T12:02:34;116.90;;;62.33;;
20348;SDS011;10332;50.208;18.988;2024-01-06T12:05:02;114.03;;;61.50;;
20348;SDS011;10332;50.208;18.988;2024-01-06T12:07:29;98.13;;;54.67;;
20348;SDS011;10332;50.208;18.988;2024-01-06T12:10:02;91.38;;;52.72;;
20348;SDS011;10332;50.208;18.988;2024-01-06T12:12:30;85.50;;;48.88;;
20348;SDS011;10332;50.208;18.988;2024-01-06T12:14:59;93.38;;;53.45;;
20348;SDS011;10332;50.208;18.988;2024-01-06T12:17:29;98.18;;;53.45;;
20348;SDS011;10332;50.208;18.988;2024-01-06T12:19:58;98.55;;;56.25;;
20348;SDS011;10332;50.208;18.988;2024-01-06T12:22:27;96.68;;;54.45;;
20348;SDS011;10332;50.208;18.988;2024-01-06T12:24:54;86.97;;;47.25;;
20348;SDS011;10332;50.208;18.988;2024-01-06T12:27:24;83.47;;;46.53;;
20348;SDS011;10332;50.208;18.988;2024-01-06T12:29:52;84.93;;;46.42;;
20348;SDS011;10332;50.208;18.988;2024-01-06T12:32:19;73.60;;;43.45;;
20348;SDS011;10332;50.208;18.988;2024-01-06T12:34:47;76.80;;;41.47;;
20348;SDS011;10332;50.208;18.988;2024-01-06T12:37:15;76.93;;;42.78;;
20348;SDS011;10332;50.208;18.988;2024-01-06T12:39:44;85.68;;;46.22;;
20348;SDS011;10332;50.208;18.988;2024-01-06T12:42:17;88.55;;;47.50;;
20348;SDS011;10332;50.208;18.988;2024-01-06T12:44:46;70.85;;;39.42;;
20348;SDS011;10332;50.208;18.988;2024-01-06T12:47:14;78.13;;;41.67;;
20348;SDS011;10332;50.208;18.988;2024-01-06T12:49:41;72.88;;;40.00;;
20348;SDS011;10332;50.208;18.988;2024-01-06T12:52:09;73.38;;;41.42;;
20348;SDS011;10332;50.208;18.988;2024-01-06T12:54:36;71.85;;;40.90;;
20348;SDS011;10332;50.208;18.988;2024-01-06T12:57:04;79.75;;;43.88;;
20348;SDS011;10332;50.208;18.988;2024-01-06T12:59:32;85.22;;;47.58;;
20348;SDS011;10332;50.208;18.988;2024-01-06T13:01:59;80.18;;;45.45;;
20348;SDS011;10332;50.208;18.988;2024-01-06T13:04:27;79.97;;;41.97;;
20348;SDS011;10332;50.208;18.988;2024-01-06T13:06:54;85.10;;;44.42;;
20348;SDS011;10332;50.208;18.988;2024-01-06T13:09:26;88.75;;;47.92;;
20348;SDS011;10332;50.208;18.988;2024-01-06T13:11:53;102.90;;;50.58;;
20348;SDS011;10332;50.208;18.988;2024-01-06T13:14:22;92.28;;;48.70;;
20348;SDS011;10332;50.208;18.988;2024-01-06T13:16:50;96.00;;;48.30;;
20348;SDS011;10332;50.208;18.988;2024-01-06T13:19:17;100.35;;;49.17;;
20348;SDS011;10332;50.208;18.988;2024-01-06T13:21:45;94.10;;;47.03;;
20348;SDS011;10332;50.208;18.988;2024-01-06T13:24:12;97.68;;;47.03;;
20348;SDS011;10332;50.208;18.988;2024-01-06T13:26:40;86.20;;;44.75;;
20348;SDS011;10332;50.208;18.988;2024-01-06T13:29:08;73.95;;;40.17;;
20348;SDS011;10332;50.208;18.988;2024-01-06T13:31:35;74.78;;;41.33;;
20348;SDS011;10332;50.208;18.988;2024-01-06T13:34:04;69.38;;;39.85;;
20348;SDS011;10332;50.208;18.988;2024-01-06T13:36:32;70.07;;;37.83;;
20348;SDS011;10332;50.208;18.988;2024-01-06T13:39:00;68.50;;;37.25;;
20348;SDS011;10332;50.208;18.988;2024-01-06T13:41:28;59.80;;;33.53;;
20348;SDS011;10332;50.208;18.988;2024-01-06T13:43:56;67.85;;;36.85;;
20348;SDS011;10332;50.208;18.988;2024-01-06T13:46:23;62.00;;;35.42;;
20348;SDS011;10332;50.208;18.988;2024-01-06T13:48:51;67.88;;;37.15;;
20348;SDS011;10332;50.208;18.988;2024-01-06T13:51:19;65.38;;;37.20;;
20348;SDS011;10332;50.208;18.988;2024-01-06T13:53:46;71.13;;;39.47;;
20348;SDS011;10332;50.208;18.988;2024-01-06T13:56:14;71.88;;;40.10;;
20348;SDS011;10332;50.208;18.988;2024-01-06T13:58:42;74.70;;;42.15;;
20348;SDS011;10332;50.208;18.988;2024-01-06T14:01:09;78.88;;;43.25;;
20348;SDS011;10332;50.208;18.988;2024-01-06T14:03:38;79.82;;;44.25;;
20348;SDS011;10332;50.208;18.988;2024-01-06T14:06:06;71.68;;;40.45;;
20348;SDS011;10332;50.208;18.988;2024-01-06T14:08:34;69.05;;;39.28;;
20348;SDS011;10332;50.208;18.988;2024-01-06T14:11:01;59.50;;;34.03;;
20348;SDS011;10332;50.208;18.988;2024-01-06T14:13:29;59.42;;;33.13;;
20348;SDS011;10332;50.208;18.988;2024-01-06T14:15:59;60.28;;;34.72;;
20348;SDS011;10332;50.208;18.988;2024-01-06T14:18:27;57.20;;;32.85;;
20348;SDS011;10332;50.208;18.988;2024-01-06T14:20:54;51.83;;;28.92;;
20348;SDS011;10332;50.208;18.988;2024-01-06T14:23:23;49.15;;;26.65;;